createdAt,value
2024-02-15T00:02:24.060Z,9.73
2024-02-15T00:04:50.948Z,9.73
2024-02-15T00:07:18.051Z,9.73
2024-02-15T00:09:44.741Z,9.75
2024-02-15T00:12:11.512Z,9.74
2024-02-15T00:14:38.801Z,9.74
2024-02-15T00:17:05.709Z,9.72
2024-02-15T00:19:32.518Z,9.72
2024-02-15T00:21:59.337Z,9.71
2024-02-15T00:24:25.992Z,9.70
2024-02-15T00:26:54.149Z,9.69
2024-02-15T00:29:20.863Z,9.67
2024-02-15T00:31:47.573Z,9.67
2024-02-15T00:34:14.802Z,9.67
2024-02-15T00:36:44.869Z,9.67
2024-02-15T00:39:13.337Z,9.67
2024-02-15T00:41:43.820Z,9.66
2024-02-15T00:44:13.520Z,9.66
2024-02-15T00:46:41.917Z,9.66
2024-02-15T00:49:08.834Z,9.66
2024-02-15T00:51:36.479Z,9.67
2024-02-15T00:54:03.969Z,9.67
2024-02-15T00:56:32.625Z,9.67
2024-02-15T00:59:03.908Z,9.66
2024-02-15T01:01:31.077Z,9.66
2024-02-15T01:03:57.892Z,9.67
2024-02-15T01:06:24.721Z,9.66
2024-02-15T01:08:52.139Z,9.66
2024-02-15T01:11:18.973Z,9.65
2024-02-15T01:13:46.082Z,9.64
2024-02-15T01:16:14.009Z,9.64
2024-02-15T01:18:40.837Z,9.65
2024-02-15T01:21:08.017Z,9.66
2024-02-15T01:23:37.286Z,9.67
2024-02-15T01:26:05.382Z,9.66
2024-02-15T01:28:32.593Z,9.67
2024-02-15T01:30:59.214Z,9.69
2024-02-15T01:33:26.056Z,9.71
2024-02-15T01:35:52.881Z,9.72
2024-02-15T01:38:19.647Z,9.73
2024-02-15T01:40:48.055Z,9.74
2024-02-15T01:43:15.059Z,9.75
2024-02-15T01:45:42.254Z,9.75
2024-02-15T01:48:10.714Z,9.76
2024-02-15T01:50:37.510Z,9.77
2024-02-15T01:53:08.720Z,9.78
2024-02-15T01:55:35.840Z,9.77
2024-02-15T01:58:05.347Z,9.76
2024-02-15T02:00:32.079Z,9.75
2024-02-15T02:03:03.146Z,9.75
2024-02-15T02:05:31.526Z,9.76
2024-02-15T02:08:02.055Z,9.77
2024-02-15T02:10:33.189Z,9.76
2024-02-15T02:13:03.133Z,9.76
2024-02-15T02:15:32.031Z,9.75
2024-02-15T02:17:59.730Z,9.74
2024-02-15T02:20:27.102Z,9.71
2024-02-15T02:22:55.941Z,9.68
2024-02-15T02:25:26.825Z,9.64
2024-02-15T02:27:54.070Z,9.62
2024-02-15T02:30:22.669Z,9.59
2024-02-15T02:32:49.514Z,9.56
2024-02-15T02:35:21.064Z,9.53
2024-02-15T02:37:47.754Z,9.49
2024-02-15T02:40:14.516Z,9.47
2024-02-15T02:42:51.648Z,9.44
2024-02-15T02:45:20.346Z,9.41
2024-02-15T02:47:48.593Z,9.42
2024-02-15T02:50:16.380Z,9.42
2024-02-15T02:52:43.064Z,9.42
2024-02-15T02:55:09.775Z,9.43
2024-02-15T02:57:40.229Z,9.43
2024-02-15T03:00:13.214Z,9.45
2024-02-15T03:02:40.196Z,9.47
2024-02-15T03:05:08.956Z,9.49
2024-02-15T03:07:37.049Z,9.51
2024-02-15T03:10:05.389Z,9.52
2024-02-15T03:12:32.474Z,9.54
2024-02-15T03:14:59.288Z,9.57
2024-02-15T03:17:26.508Z,9.58
2024-02-15T03:19:53.295Z,9.59
2024-02-15T03:22:20.009Z,9.59
2024-02-15T03:24:46.615Z,9.60
2024-02-15T03:27:13.345Z,9.60
2024-02-15T03:29:40.183Z,9.60
2024-02-15T03:32:07.119Z,9.59
2024-02-15T03:34:33.968Z,9.59
2024-02-15T03:37:01.200Z,9.59
2024-02-15T03:39:28.039Z,9.58
2024-02-15T03:41:56.475Z,9.54
2024-02-15T03:44:26.414Z,9.52
2024-02-15T03:47:01.136Z,9.51
2024-02-15T03:49:28.022Z,9.51
2024-02-15T03:51:55.539Z,9.51
2024-02-15T03:54:23.750Z,9.51
2024-02-15T03:56:55.182Z,9.51
2024-02-15T03:59:32.819Z,9.50
2024-02-15T04:02:03.843Z,9.48
2024-02-15T04:04:30.912Z,9.47
2024-02-15T04:06:58.780Z,9.47
2024-02-15T04:09:25.786Z,9.45
2024-02-15T04:11:53.441Z,9.43
2024-02-15T04:14:20.257Z,9.41
2024-02-15T04:16:47.027Z,9.40
2024-02-15T04:19:14.248Z,9.40
2024-02-15T04:21:41.083Z,9.39
2024-02-15T04:24:07.872Z,9.38
2024-02-15T04:26:34.856Z,9.37
2024-02-15T04:29:01.558Z,9.36
2024-02-15T04:31:28.370Z,9.35
2024-02-15T04:33:56.192Z,9.34
2024-02-15T04:36:26.695Z,9.32
2024-02-15T04:38:53.869Z,9.31
2024-02-15T04:41:23.477Z,9.29
2024-02-15T04:43:51.136Z,9.28
2024-02-15T04:46:18.071Z,9.25
2024-02-15T04:48:44.859Z,9.23
2024-02-15T04:51:11.734Z,9.20
2024-02-15T04:53:39.728Z,9.19
2024-02-15T04:56:14.350Z,9.16
2024-02-15T04:58:47.948Z,9.15
2024-02-15T05:01:15.929Z,9.16
2024-02-15T05:03:46.292Z,9.18
2024-02-15T05:06:13.219Z,9.17
2024-02-15T05:08:43.182Z,9.18
2024-02-15T05:11:18.267Z,9.18
2024-02-15T05:13:45.615Z,9.21
2024-02-15T05:16:16.578Z,9.23
2024-02-15T05:18:43.520Z,9.25
2024-02-15T05:21:10.549Z,9.28
2024-02-15T05:23:40.227Z,9.31
2024-02-15T05:26:07.210Z,9.33
2024-02-15T05:28:34.072Z,9.34
2024-02-15T05:31:11.829Z,9.37
2024-02-15T05:33:44.643Z,9.39
2024-02-15T05:36:12.326Z,9.43
2024-02-15T05:38:39.866Z,9.45
2024-02-15T05:41:08.300Z,9.47
2024-02-15T05:43:37.990Z,9.48
2024-02-15T05:46:07.066Z,9.49
2024-02-15T05:48:37.287Z,9.50
2024-02-15T05:51:05.321Z,9.53
2024-02-15T05:53:38.642Z,9.54
2024-02-15T05:56:07.780Z,9.53
2024-02-15T05:58:36.061Z,9.52
2024-02-15T06:01:07.030Z,9.54
2024-02-15T06:03:39.195Z,9.56
2024-02-15T06:06:10.031Z,9.57
2024-02-15T06:08:39.920Z,9.58
2024-02-15T06:11:07.576Z,9.61
2024-02-15T06:13:34.327Z,9.61
2024-02-15T06:16:01.642Z,9.62
2024-02-15T06:18:29.885Z,9.61
2024-02-15T06:20:58.582Z,9.62
2024-02-15T06:23:28.143Z,9.62
2024-02-15T06:25:57.156Z,9.65
2024-02-15T06:28:42.632Z,9.69
2024-02-15T06:31:29.779Z,9.73
2024-02-15T06:34:16.413Z,9.76
2024-02-15T06:37:19.014Z,9.79
2024-02-15T06:39:46.312Z,9.83
2024-02-15T06:42:21.699Z,9.87
2024-02-15T06:44:49.416Z,9.90
2024-02-15T06:47:25.626Z,9.94
2024-02-15T06:49:55.845Z,9.99
2024-02-15T06:52:23.663Z,10.01
2024-02-15T06:54:51.900Z,10.04
2024-02-15T06:57:19.032Z,10.09
2024-02-15T06:59:47.627Z,10.16
2024-02-15T07:02:14.539Z,10.20
2024-02-15T07:04:42.309Z,10.26
2024-02-15T07:07:09.104Z,10.30
2024-02-15T07:09:36.068Z,10.35
2024-02-15T07:12:03.041Z,10.39
2024-02-15T07:14:30.007Z,10.43
2024-02-15T07:17:04.735Z,10.47
2024-02-15T07:19:49.730Z,10.50
2024-02-15T07:22:17.272Z,10.52
2024-02-15T07:24:44.628Z,10.54
2024-02-15T07:27:12.195Z,10.58
2024-02-15T07:29:39.287Z,10.63
2024-02-15T07:32:06.767Z,10.68
2024-02-15T07:34:34.887Z,10.71
2024-02-15T07:37:03.073Z,10.74
2024-02-15T07:39:30.105Z,10.79
2024-02-15T07:42:05.126Z,10.84
2024-02-15T07:44:33.034Z,10.90
2024-02-15T07:47:00.978Z,10.97
2024-02-15T07:49:28.019Z,11.02
2024-02-15T07:51:55.025Z,11.09
2024-02-15T07:54:22.348Z,11.17
2024-02-15T07:56:50.801Z,11.25
2024-02-15T07:59:17.715Z,11.34
2024-02-15T08:01:46.465Z,11.45
2024-02-15T08:04:14.589Z,11.54
2024-02-15T08:06:43.057Z,11.63
2024-02-15T08:09:19.017Z,11.69
2024-02-15T08:11:46.167Z,11.76
2024-02-15T08:14:14.625Z,11.82
2024-02-15T08:16:41.933Z,11.88
2024-02-15T08:19:09.167Z,11.93
2024-02-15T08:21:38.054Z,11.99
2024-02-15T08:24:07.753Z,12.06
2024-02-15T08:26:43.279Z,12.14
2024-02-15T08:29:14.339Z,12.19
2024-02-15T08:31:42.039Z,12.20
2024-02-15T08:34:11.795Z,12.21
2024-02-15T08:36:40.343Z,12.22
2024-02-15T08:39:08.997Z,12.24
2024-02-15T08:41:36.051Z,12.25
2024-02-15T08:44:06.561Z,12.28
2024-02-15T08:46:33.412Z,12.34
2024-02-15T08:49:01.352Z,12.38
2024-02-15T08:51:30.894Z,12.42
2024-02-15T08:53:58.975Z,12.47
2024-02-15T08:56:26.438Z,12.52
2024-02-15T08:58:53.058Z,12.56
2024-02-15T09:01:20.142Z,12.61
2024-02-15T09:03:47.244Z,12.66
2024-02-15T09:06:16.392Z,12.69
2024-02-15T09:08:43.398Z,12.72
2024-02-15T09:11:12.897Z,12.77
2024-02-15T09:13:39.724Z,12.82
2024-02-15T09:16:12.390Z,12.85
2024-02-15T09:18:45.574Z,12.91
2024-02-15T09:21:20.130Z,12.99
2024-02-15T09:23:48.074Z,13.07
2024-02-15T09:26:14.914Z,13.18
2024-02-15T09:28:41.817Z,13.26
2024-02-15T09:31:08.758Z,13.35
2024-02-15T09:33:35.641Z,13.45
2024-02-15T09:36:03.123Z,13.55
2024-02-15T09:38:30.338Z,13.62
2024-02-15T09:40:57.750Z,13.67
2024-02-15T09:43:26.763Z,13.73
2024-02-15T09:45:53.788Z,13.79
2024-02-15T09:48:25.954Z,13.83
2024-02-15T09:50:56.040Z,13.89
2024-02-15T09:53:26.300Z,13.94
2024-02-15T09:56:04.737Z,13.98
2024-02-15T09:58:34.922Z,14.01
2024-02-15T10:01:06.805Z,14.07
2024-02-15T10:03:34.306Z,14.11
2024-02-15T10:06:01.450Z,14.16
2024-02-15T10:08:30.240Z,14.25
2024-02-15T10:11:10.459Z,14.37
2024-02-15T10:13:39.968Z,14.50
2024-02-15T10:16:18.821Z,14.63
2024-02-15T10:18:47.753Z,14.75
2024-02-15T10:21:35.843Z,14.87
2024-02-15T10:24:07.696Z,14.98
2024-02-15T10:26:38.415Z,15.07
2024-02-15T10:29:10.241Z,15.19
2024-02-15T10:31:52.804Z,15.29
2024-02-15T10:34:21.754Z,15.32
2024-02-15T10:36:50.503Z,15.40
2024-02-15T10:39:21.910Z,15.50
2024-02-15T10:41:53.692Z,15.61
2024-02-15T10:44:23.881Z,15.59
2024-02-15T10:46:53.820Z,15.58
2024-02-15T10:49:24.382Z,15.63
2024-02-15T10:51:56.911Z,15.72
2024-02-15T10:54:47.258Z,15.83
2024-02-15T10:57:22.943Z,15.93
2024-02-15T10:59:59.701Z,15.99
2024-02-15T11:02:32.218Z,16.07
2024-02-15T11:05:06.896Z,16.13
2024-02-15T11:07:34.406Z,16.12
2024-02-15T11:10:05.357Z,16.08
2024-02-15T11:12:32.400Z,16.14
2024-02-15T11:14:59.690Z,16.20
2024-02-15T11:17:43.253Z,16.30
2024-02-15T11:20:14.251Z,16.41
2024-02-15T11:22:43.275Z,16.54
2024-02-15T11:25:12.243Z,16.63
2024-02-15T11:27:41.043Z,16.64
2024-02-15T11:30:13.072Z,16.61
2024-02-15T11:32:52.651Z,16.56
2024-02-15T11:35:23.798Z,16.52
2024-02-15T11:37:53.503Z,16.51
2024-02-15T11:40:41.873Z,16.51
2024-02-15T11:43:11.429Z,16.50
2024-02-15T11:45:41.590Z,16.51
2024-02-15T11:48:13.391Z,16.54
2024-02-15T11:50:43.188Z,16.63
2024-02-15T11:53:11.171Z,16.74
2024-02-15T11:55:42.768Z,16.80
2024-02-15T11:58:10.924Z,16.85
2024-02-15T12:00:59.129Z,16.79
2024-02-15T12:03:52.889Z,16.62
2024-02-15T12:06:48.414Z,16.57
2024-02-15T12:09:38.014Z,16.65
2024-02-15T12:12:24.765Z,16.76
2024-02-15T12:15:20.692Z,16.82
2024-02-15T12:18:06.459Z,16.94
2024-02-15T12:20:34.830Z,16.87
2024-02-15T12:23:01.928Z,16.86
2024-02-15T12:25:29.074Z,16.82
2024-02-15T12:27:57.128Z,16.81
2024-02-15T12:30:25.982Z,16.88
2024-02-15T12:33:11.421Z,16.83
2024-02-15T12:35:38.868Z,16.72
2024-02-15T12:38:05.836Z,16.64
2024-02-15T12:40:35.253Z,16.53
2024-02-15T12:43:09.009Z,16.51
2024-02-15T12:45:38.629Z,16.55
2024-02-15T12:48:07.242Z,16.58
2024-02-15T12:50:35.137Z,16.64
2024-02-15T12:53:06.499Z,16.74
2024-02-15T12:55:35.504Z,16.81
2024-02-15T12:58:04.599Z,16.81
2024-02-15T13:00:33.934Z,16.79
2024-02-15T13:03:05.705Z,16.75
2024-02-15T13:05:33.566Z,16.73
2024-02-15T13:08:04.000Z,16.71
2024-02-15T13:10:32.159Z,16.72
2024-02-15T13:12:59.018Z,16.74
2024-02-15T13:15:33.357Z,16.82
2024-02-15T13:18:04.862Z,16.87
2024-02-15T13:20:36.175Z,16.91
2024-02-15T13:23:08.698Z,16.96
2024-02-15T13:25:40.275Z,17.07
2024-02-15T13:28:09.445Z,17.17
2024-02-15T13:30:36.711Z,17.27
2024-02-15T13:33:04.492Z,17.33
2024-02-15T13:35:32.926Z,17.41
2024-02-15T13:37:59.952Z,17.51
2024-02-15T13:40:28.704Z,17.54
2024-02-15T13:42:59.073Z,17.45
2024-02-15T13:45:37.968Z,17.34
2024-02-15T13:48:05.612Z,17.22
2024-02-15T13:50:33.240Z,17.10
2024-02-15T13:53:00.241Z,17.02
2024-02-15T13:55:27.557Z,16.96
2024-02-15T13:58:00.388Z,16.89
2024-02-15T14:00:30.798Z,16.82
2024-02-15T14:02:59.479Z,16.77
2024-02-15T14:05:30.770Z,16.72
2024-02-15T14:08:00.056Z,16.67
2024-02-15T14:10:38.121Z,16.54
2024-02-15T14:13:09.680Z,16.36
2024-02-15T14:15:38.749Z,16.21
2024-02-15T14:18:19.074Z,16.07
2024-02-15T14:20:48.148Z,15.94
2024-02-15T14:23:15.992Z,15.84
2024-02-15T14:25:49.537Z,15.76
2024-02-15T14:28:16.917Z,15.67
2024-02-15T14:31:02.745Z,15.53
2024-02-15T14:33:33.942Z,15.38
2024-02-15T14:36:05.051Z,15.28
2024-02-15T14:38:34.639Z,15.19
2024-02-15T14:41:02.999Z,15.12
2024-02-15T14:43:30.349Z,15.03
2024-02-15T14:45:58.586Z,14.93
2024-02-15T14:48:26.550Z,14.87
2024-02-15T14:50:56.452Z,14.84
2024-02-15T14:53:23.469Z,14.79
2024-02-15T14:55:52.234Z,14.74
2024-02-15T14:58:20.664Z,14.73
2024-02-15T15:00:48.844Z,14.71
2024-02-15T15:03:17.377Z,14.68
2024-02-15T15:06:04.106Z,14.65
2024-02-15T15:08:50.518Z,14.64
2024-02-15T15:11:36.647Z,14.63
2024-02-15T15:14:05.072Z,14.62
2024-02-15T15:16:32.101Z,14.61
2024-02-15T15:18:59.404Z,14.55
2024-02-15T15:21:28.157Z,14.51
2024-02-15T15:23:55.263Z,14.50
2024-02-15T15:26:22.685Z,14.47
2024-02-15T15:28:50.312Z,14.44
2024-02-15T15:31:17.838Z,14.39
2024-02-15T15:33:45.162Z,14.35
2024-02-15T15:36:12.712Z,14.32
2024-02-15T15:38:40.041Z,14.29
2024-02-15T15:41:10.431Z,14.25
2024-02-15T15:43:40.889Z,14.19
2024-02-15T15:46:16.030Z,14.15
2024-02-15T15:48:46.954Z,14.10
2024-02-15T15:51:14.710Z,14.03
2024-02-15T15:53:42.880Z,13.96
2024-02-15T15:56:10.483Z,13.91
2024-02-15T15:58:37.366Z,13.86
2024-02-15T16:01:04.853Z,13.81
2024-02-15T16:03:32.013Z,13.77
2024-02-15T16:05:58.965Z,13.70
2024-02-15T16:08:27.398Z,13.64
2024-02-15T16:10:59.187Z,13.54
2024-02-15T16:13:44.943Z,13.45
2024-02-15T16:16:12.805Z,13.36
2024-02-15T16:18:39.755Z,13.27
2024-02-15T16:21:07.311Z,13.20
2024-02-15T16:23:34.359Z,13.11
2024-02-15T16:26:01.511Z,13.01
2024-02-15T16:28:29.705Z,12.93
2024-02-15T16:30:56.691Z,12.85
2024-02-15T16:33:23.584Z,12.77
2024-02-15T16:35:50.751Z,12.69
2024-02-15T16:38:17.812Z,12.61
2024-02-15T16:40:45.300Z,12.53
2024-02-15T16:43:12.743Z,12.44
2024-02-15T16:45:44.205Z,12.34
2024-02-15T16:48:12.271Z,12.22
2024-02-15T16:50:42.134Z,12.12
2024-02-15T16:53:13.131Z,12.05
2024-02-15T16:55:42.057Z,11.98
2024-02-15T16:58:11.035Z,11.92
2024-02-15T17:00:39.194Z,11.86
2024-02-15T17:03:08.983Z,11.80
2024-02-15T17:05:35.999Z,11.75
2024-02-15T17:08:06.773Z,11.69
2024-02-15T17:10:35.449Z,11.65
2024-02-15T17:13:02.751Z,11.58
2024-02-15T17:15:30.379Z,11.53
2024-02-15T17:17:58.108Z,11.49
2024-02-15T17:20:25.682Z,11.45
2024-02-15T17:22:52.428Z,11.39
2024-02-15T17:25:24.509Z,11.35
2024-02-15T17:27:59.443Z,11.30
2024-02-15T17:30:26.724Z,11.25
2024-02-15T17:32:53.917Z,11.21
2024-02-15T17:35:21.387Z,11.17
2024-02-15T17:37:48.108Z,11.13
2024-02-15T17:40:14.933Z,11.09
2024-02-15T17:42:42.995Z,11.05
2024-02-15T17:45:13.583Z,11.01
2024-02-15T17:47:42.613Z,10.98
2024-02-15T17:50:10.992Z,10.97
2024-02-15T17:52:38.558Z,10.94
2024-02-15T17:55:06.874Z,10.91
2024-02-15T17:57:33.770Z,10.90
2024-02-15T18:00:00.591Z,10.89
2024-02-15T18:02:28.866Z,10.88
2024-02-15T18:04:55.843Z,10.87
2024-02-15T18:07:22.762Z,10.86
2024-02-15T18:09:51.742Z,10.85
2024-02-15T18:12:22.894Z,10.84
2024-02-15T18:14:51.104Z,10.83
2024-02-15T18:17:17.947Z,10.82
2024-02-15T18:19:49.918Z,10.82
2024-02-15T18:22:16.882Z,10.82
2024-02-15T18:24:51.952Z,10.81
2024-02-15T18:27:23.392Z,10.80
2024-02-15T18:29:50.758Z,10.80
2024-02-15T18:32:18.561Z,10.81
2024-02-15T18:34:49.695Z,10.80
2024-02-15T18:37:25.937Z,10.80
2024-02-15T18:39:57.219Z,10.78
2024-02-15T18:42:26.195Z,10.78
2024-02-15T18:44:53.153Z,10.77
2024-02-15T18:47:22.182Z,10.77
2024-02-15T18:50:00.066Z,10.76
2024-02-15T18:52:28.665Z,10.74
2024-02-15T18:54:59.474Z,10.72
2024-02-15T18:57:27.720Z,10.70
2024-02-15T18:59:56.333Z,10.69
2024-02-15T19:02:23.313Z,10.67
2024-02-15T19:04:53.185Z,10.64
2024-02-15T19:07:20.192Z,10.63
2024-02-15T19:09:47.321Z,10.61
2024-02-15T19:12:14.440Z,10.60
2024-02-15T19:14:43.231Z,10.57
2024-02-15T19:17:10.119Z,10.53
2024-02-15T19:19:37.751Z,10.51
2024-02-15T19:22:04.572Z,10.48
2024-02-15T19:24:31.426Z,10.46
2024-02-15T19:26:58.397Z,10.42
2024-02-15T19:29:26.362Z,10.40
2024-02-15T19:31:53.068Z,10.39
2024-02-15T19:34:21.442Z,10.38
2024-02-15T19:36:53.754Z,10.36
2024-02-15T19:39:24.716Z,10.36
2024-02-15T19:41:52.560Z,10.36
2024-02-15T19:44:20.127Z,10.37
2024-02-15T19:46:47.368Z,10.38
2024-02-15T19:49:14.322Z,10.40
2024-02-15T19:51:41.158Z,10.42
2024-02-15T19:54:07.970Z,10.46
2024-02-15T19:56:34.927Z,10.48
2024-02-15T19:59:02.269Z,10.50
2024-02-15T20:01:29.409Z,10.52
2024-02-15T20:03:56.705Z,10.54
2024-02-15T20:06:25.246Z,10.55
2024-02-15T20:08:57.933Z,10.56
2024-02-15T20:11:28.458Z,10.58
2024-02-15T20:13:58.557Z,10.58
2024-02-15T20:16:25.313Z,10.58
2024-02-15T20:18:52.313Z,10.58
2024-02-15T20:21:20.845Z,10.56
2024-02-15T20:23:52.150Z,10.55
2024-02-15T20:26:20.091Z,10.54
2024-02-15T20:28:48.007Z,10.55
2024-02-15T20:31:17.765Z,10.54
2024-02-15T20:33:45.798Z,10.53
2024-02-15T20:36:12.997Z,10.52
2024-02-15T20:38:41.487Z,10.52
2024-02-15T20:41:12.259Z,10.52
2024-02-15T20:43:39.761Z,10.49
2024-02-15T20:46:10.367Z,10.47
2024-02-15T20:48:38.840Z,10.45
2024-02-15T20:51:08.588Z,10.45
2024-02-15T20:53:35.515Z,10.45
2024-02-15T20:56:02.200Z,10.45
2024-02-15T20:58:29.436Z,10.46
2024-02-15T21:00:59.165Z,10.47
2024-02-15T21:03:25.922Z,10.47
2024-02-15T21:05:54.036Z,10.48
2024-02-15T21:08:21.818Z,10.47
2024-02-15T21:10:48.906Z,10.46
2024-02-15T21:13:15.703Z,10.44
2024-02-15T21:15:43.025Z,10.43
2024-02-15T21:18:10.591Z,10.44
2024-02-15T21:20:37.513Z,10.42
2024-02-15T21:23:06.375Z,10.39
2024-02-15T21:25:33.597Z,10.38
2024-02-15T21:28:00.494Z,10.35
2024-02-15T21:30:29.316Z,10.32
2024-02-15T21:32:56.087Z,10.30
2024-02-15T21:35:24.075Z,10.28
2024-02-15T21:37:51.119Z,10.25
2024-02-15T21:40:18.060Z,10.21
2024-02-15T21:42:44.745Z,10.18
2024-02-15T21:45:12.674Z,10.15
2024-02-15T21:47:43.341Z,10.12
2024-02-15T21:50:10.753Z,10.09
2024-02-15T21:52:37.891Z,10.04
2024-02-15T21:55:05.072Z,9.99
2024-02-15T21:57:33.028Z,9.95
2024-02-15T22:00:00.083Z,9.92
2024-02-15T22:03:23.819Z,9.89
2024-02-15T22:07:23.915Z,9.85
2024-02-15T22:11:23.963Z,9.80
2024-02-15T22:14:09.372Z,9.78
2024-02-15T22:16:36.687Z,9.78
2024-02-15T22:19:07.122Z,9.79
2024-02-15T22:21:34.648Z,9.79
2024-02-15T22:24:01.867Z,9.80
2024-02-15T22:26:28.981Z,9.83
2024-02-15T22:28:56.085Z,9.84
2024-02-15T22:31:23.553Z,9.87
2024-02-15T22:33:51.314Z,9.90
2024-02-15T22:36:25.697Z,9.95
2024-02-15T22:38:53.017Z,9.99
2024-02-15T22:41:21.784Z,10.02
2024-02-15T22:43:49.352Z,10.07
2024-02-15T22:46:16.341Z,10.11
2024-02-15T22:48:43.938Z,10.14
2024-02-15T22:51:11.336Z,10.15
2024-02-15T22:53:45.628Z,10.16
2024-02-15T22:56:13.467Z,10.17
2024-02-15T22:58:40.512Z,10.18
2024-02-15T23:01:08.324Z,10.19
2024-02-15T23:03:36.005Z,10.19
2024-02-15T23:06:03.324Z,10.20
2024-02-15T23:08:30.329Z,10.19
2024-02-15T23:10:57.510Z,10.18
2024-02-15T23:13:24.561Z,10.15
2024-02-15T23:15:54.265Z,10.13
2024-02-15T23:18:21.511Z,10.10
2024-02-15T23:20:48.651Z,10.07
2024-02-15T23:23:16.697Z,10.05
2024-02-15T23:25:44.303Z,10.01
2024-02-15T23:28:11.489Z,9.99
2024-02-15T23:30:40.431Z,9.96
2024-02-15T23:33:10.718Z,9.94
2024-02-15T23:35:48.086Z,9.90
2024-02-15T23:38:33.794Z,9.86
2024-02-15T23:41:01.017Z,9.81
2024-02-15T23:43:28.630Z,9.77
2024-02-15T23:45:55.818Z,9.75
2024-02-15T23:48:22.834Z,9.73
2024-02-15T23:50:50.211Z,9.71
2024-02-15T23:53:17.333Z,9.68
2024-02-15T23:55:44.291Z,9.64
2024-02-15T23:58:11.370Z,9.60
